createdAt,value
2022-09-06T00:01:14.500Z,84.60
2022-09-06T00:03:41.416Z,84.17
2022-09-06T00:06:14.244Z,84.32
2022-09-06T00:08:42.792Z,84.10
2022-09-06T00:11:09.689Z,83.99
2022-09-06T00:13:36.915Z,84.16
2022-09-06T00:16:25.372Z,84.83
2022-09-06T00:18:55.451Z,83.90
2022-09-06T00:21:25.590Z,84.61
2022-09-06T00:23:53.395Z,84.37
2022-09-06T00:26:20.848Z,84.90
2022-09-06T00:28:47.535Z,85.15
2022-09-06T00:31:20.353Z,85.52
2022-09-06T00:33:47.212Z,84.97
2022-09-06T00:36:14.476Z,84.75
2022-09-06T00:38:41.677Z,84.86
2022-09-06T00:41:10.230Z,85.00
2022-09-06T00:43:37.685Z,85.00
2022-09-06T00:46:06.829Z,84.96
2022-09-06T00:48:35.555Z,84.54
2022-09-06T00:51:06.274Z,84.75
2022-09-06T00:53:33.295Z,84.81
2022-09-06T00:56:00.699Z,84.92
2022-09-06T00:58:28.047Z,83.95
2022-09-06T01:00:54.984Z,84.59
2022-09-06T01:03:24.422Z,84.75
2022-09-06T01:06:00.078Z,85.10
2022-09-06T01:09:02.744Z,85.99
2022-09-06T01:11:53.783Z,85.71
2022-09-06T01:14:20.392Z,84.88
2022-09-06T01:17:17.014Z,84.67
2022-09-06T01:20:11.308Z,86.01
2022-09-06T01:23:05.638Z,86.01
2022-09-06T01:26:02.725Z,85.95
2022-09-06T01:28:44.382Z,85.91
2022-09-06T01:31:11.148Z,84.82
2022-09-06T01:34:08.442Z,85.98
2022-09-06T01:37:06.228Z,85.54
2022-09-06T01:39:32.430Z,84.83
2022-09-06T01:42:05.934Z,85.20
2022-09-06T01:44:33.582Z,85.32
2022-09-06T01:47:19.189Z,86.75
2022-09-06T01:50:06.923Z,86.43
2022-09-06T01:53:02.775Z,86.02
2022-09-06T01:55:57.255Z,87.25
2022-09-06T01:58:45.739Z,86.02
2022-09-06T02:01:21.526Z,86.27
2022-09-06T02:04:11.853Z,87.28
2022-09-06T02:06:43.772Z,86.17
2022-09-06T02:09:17.113Z,86.15
2022-09-06T02:11:50.356Z,86.67
2022-09-06T02:14:23.448Z,86.36
2022-09-06T02:16:53.514Z,86.33
2022-09-06T02:19:43.435Z,87.11
2022-09-06T02:22:13.498Z,85.91
2022-09-06T02:24:44.691Z,85.92
2022-09-06T02:27:12.682Z,85.56
2022-09-06T02:29:39.538Z,85.99
2022-09-06T02:32:20.556Z,86.80
2022-09-06T02:34:48.458Z,85.71
2022-09-06T02:37:16.635Z,85.61
2022-09-06T02:39:43.324Z,85.58
2022-09-06T02:42:12.789Z,85.97
2022-09-06T02:44:39.430Z,85.28
2022-09-06T02:47:06.726Z,85.46
2022-09-06T02:49:33.371Z,85.69
2022-09-06T02:51:59.966Z,85.70
2022-09-06T02:54:26.615Z,85.65
2022-09-06T02:56:53.258Z,85.72
2022-09-06T02:59:20.073Z,85.41
2022-09-06T03:01:46.706Z,85.44
2022-09-06T03:04:13.397Z,85.62
2022-09-06T03:06:40.154Z,85.78
2022-09-06T03:09:06.805Z,85.59
2022-09-06T03:11:33.517Z,85.95
2022-09-06T03:14:00.074Z,85.93
2022-09-06T03:16:27.101Z,85.76
2022-09-06T03:18:53.781Z,85.73
2022-09-06T03:21:20.764Z,85.96
2022-09-06T03:23:47.449Z,86.20
2022-09-06T03:26:14.085Z,85.76
2022-09-06T03:28:40.932Z,85.76
2022-09-06T03:31:07.666Z,86.01
2022-09-06T03:33:34.524Z,85.81
2022-09-06T03:36:03.064Z,85.88
2022-09-06T03:38:30.061Z,86.13
2022-09-06T03:40:57.185Z,86.21
2022-09-06T03:43:25.647Z,86.69
2022-09-06T03:45:54.912Z,86.43
2022-09-06T03:48:23.568Z,86.03
2022-09-06T03:50:54.378Z,86.36
2022-09-06T03:53:21.815Z,86.38
2022-09-06T03:55:50.302Z,86.37
2022-09-06T03:58:19.227Z,85.96
2022-09-06T04:00:46.130Z,85.87
2022-09-06T04:03:13.609Z,86.61
2022-09-06T04:05:40.670Z,85.91
2022-09-06T04:08:07.446Z,86.12
2022-09-06T04:10:34.087Z,86.10
2022-09-06T04:13:00.767Z,86.31
2022-09-06T04:15:27.377Z,86.42
2022-09-06T04:17:54.029Z,85.98
2022-09-06T04:20:20.660Z,86.26
2022-09-06T04:22:47.261Z,86.08
2022-09-06T04:25:14.049Z,85.89
2022-09-06T04:27:40.750Z,85.53
2022-09-06T04:30:08.292Z,85.93
2022-09-06T04:32:34.964Z,86.55
2022-09-06T04:35:01.804Z,85.92
2022-09-06T04:37:28.314Z,85.92
2022-09-06T04:39:55.774Z,85.83
2022-09-06T04:42:22.609Z,85.46
2022-09-06T04:44:49.262Z,85.37
2022-09-06T04:47:18.088Z,85.69
2022-09-06T04:49:44.998Z,85.31
2022-09-06T04:52:12.173Z,85.29
2022-09-06T04:54:39.107Z,85.44
2022-09-06T04:57:05.970Z,85.68
2022-09-06T04:59:32.850Z,85.59
2022-09-06T05:01:59.498Z,85.35
2022-09-06T05:04:26.317Z,85.23
2022-09-06T05:07:03.517Z,86.53
2022-09-06T05:09:30.408Z,85.29
2022-09-06T05:11:57.222Z,85.85
2022-09-06T05:14:24.143Z,85.19
2022-09-06T05:16:50.853Z,85.70
2022-09-06T05:19:17.958Z,85.88
2022-09-06T05:21:45.159Z,85.74
2022-09-06T05:24:11.949Z,85.52
2022-09-06T05:26:38.580Z,85.96
2022-09-06T05:29:05.216Z,85.37
2022-09-06T05:31:34.072Z,86.03
2022-09-06T05:34:00.889Z,86.08
2022-09-06T05:36:28.645Z,85.84
2022-09-06T05:38:56.384Z,86.12
2022-09-06T05:41:23.847Z,86.83
2022-09-06T05:43:50.391Z,86.78
2022-09-06T05:46:17.264Z,87.19
2022-09-06T05:48:44.116Z,87.06
2022-09-06T05:51:13.043Z,86.84
2022-09-06T05:53:41.073Z,88.31
2022-09-06T05:56:08.752Z,88.59
2022-09-06T05:58:35.506Z,88.21
2022-09-06T06:01:18.694Z,88.67
2022-09-06T06:04:11.871Z,88.66
2022-09-06T06:06:38.428Z,88.19
2022-09-06T06:09:05.123Z,88.29
2022-09-06T06:11:32.007Z,87.98
2022-09-06T06:14:01.503Z,88.34
2022-09-06T06:16:28.124Z,88.14
2022-09-06T06:18:55.060Z,88.42
2022-09-06T06:21:33.254Z,88.53
2022-09-06T06:24:02.405Z,88.02
2022-09-06T06:26:31.709Z,88.69
2022-09-06T06:29:01.815Z,88.01
2022-09-06T06:31:33.177Z,88.83
2022-09-06T06:34:03.275Z,88.49
2022-09-06T06:36:31.691Z,87.90
2022-09-06T06:38:59.020Z,88.05
2022-09-06T06:41:28.016Z,87.90
2022-09-06T06:43:56.535Z,88.44
2022-09-06T06:46:31.951Z,88.13
2022-09-06T06:48:58.817Z,87.93
2022-09-06T06:51:28.461Z,87.90
2022-09-06T06:53:56.825Z,88.35
2022-09-06T06:56:26.368Z,88.18
2022-09-06T06:58:59.202Z,88.46
2022-09-06T07:01:28.559Z,87.92
2022-09-06T07:03:55.749Z,87.73
2022-09-06T07:09:10.100Z,87.97
2022-09-06T07:11:36.748Z,88.53
2022-09-06T07:14:03.879Z,88.48
2022-09-06T07:16:30.676Z,88.32
2022-09-06T07:18:57.307Z,88.21
2022-09-06T07:21:42.500Z,88.73
2022-09-06T07:24:10.063Z,88.40
2022-09-06T07:26:39.596Z,89.07
2022-09-06T07:29:07.824Z,88.25
2022-09-06T07:34:22.415Z,88.23
2022-09-06T07:36:52.479Z,88.01
2022-09-06T07:39:19.057Z,87.91
2022-09-06T07:41:45.603Z,88.60
2022-09-06T07:44:12.386Z,88.15
2022-09-06T07:46:39.741Z,88.21
2022-09-06T07:49:06.746Z,88.19
2022-09-06T07:51:33.480Z,87.57
2022-09-06T07:56:47.721Z,87.25
2022-09-06T07:59:14.561Z,86.04
2022-09-06T08:01:41.810Z,84.71
2022-09-06T08:04:14.258Z,85.11
2022-09-06T08:09:38.927Z,83.52
2022-09-06T08:12:08.666Z,82.47
2022-09-06T08:14:35.998Z,82.38
2022-09-06T08:17:04.327Z,82.38
2022-09-06T08:19:31.705Z,81.56
2022-09-06T08:21:58.663Z,81.25
2022-09-06T08:24:25.589Z,81.02
2022-09-06T08:26:52.560Z,81.24
2022-09-06T08:29:20.174Z,82.09
2022-09-06T08:31:47.571Z,81.38
2022-09-06T08:38:20.226Z,83.52
2022-09-06T08:40:46.965Z,81.86
2022-09-06T08:43:18.702Z,82.67
2022-09-06T08:45:52.524Z,82.20
2022-09-06T08:48:21.632Z,82.10
2022-09-06T08:51:12.102Z,84.25
2022-09-06T08:53:46.537Z,82.75
2022-09-06T08:56:21.437Z,83.29
2022-09-06T08:59:04.084Z,83.62
2022-09-06T09:02:02.103Z,82.63
2022-09-06T09:04:30.463Z,80.71
2022-09-06T09:07:21.134Z,80.97
2022-09-06T09:09:48.187Z,78.32
2022-09-06T09:12:17.792Z,78.43
2022-09-06T09:14:48.461Z,78.07
2022-09-06T09:17:25.984Z,79.60
2022-09-06T09:19:52.494Z,79.28
2022-09-06T09:22:19.963Z,78.20
2022-09-06T09:24:48.458Z,78.48
2022-09-06T09:27:20.459Z,79.73
2022-09-06T09:32:45.219Z,77.71
2022-09-06T09:35:26.708Z,78.80
2022-09-06T09:38:07.750Z,76.92
2022-09-06T09:40:41.939Z,75.64
2022-09-06T10:27:25.813Z,69.73
2022-09-06T10:30:03.418Z,68.75
2022-09-06T10:33:08.334Z,69.59
2022-09-06T10:35:38.373Z,66.15
2022-09-06T10:38:32.288Z,66.51
2022-09-06T10:41:14.010Z,63.50
2022-09-06T10:43:53.210Z,64.43
2022-09-06T10:46:25.924Z,63.62
2022-09-06T10:48:55.870Z,64.34
2022-09-06T10:51:28.448Z,64.08
2022-09-06T10:56:56.071Z,64.13
2022-09-06T11:02:34.158Z,64.49
2022-09-06T11:10:51.136Z,62.80
2022-09-06T11:13:21.136Z,62.18
2022-09-06T11:16:06.115Z,61.92
2022-09-06T11:19:05.500Z,61.84
2022-09-06T11:29:56.533Z,60.42
2022-09-06T11:32:40.869Z,62.12
2022-09-06T11:35:20.387Z,61.55
2022-09-06T11:43:51.513Z,60.75
2022-09-06T11:51:47.662Z,59.57
2022-09-06T11:54:41.964Z,58.65
2022-09-06T11:57:11.860Z,57.52
2022-09-06T11:59:52.385Z,57.43
2022-09-06T12:02:35.058Z,57.41
2022-09-06T12:05:03.171Z,57.54
2022-09-06T12:07:32.213Z,57.75
2022-09-06T12:10:02.093Z,57.93
2022-09-06T12:12:48.978Z,58.65
2022-09-06T12:15:44.497Z,59.58
2022-09-06T12:18:48.848Z,59.41
2022-09-06T12:21:34.158Z,59.60
2022-09-06T12:24:01.644Z,60.00
2022-09-06T12:26:55.573Z,60.97
2022-09-06T12:29:26.696Z,60.32
2022-09-06T12:32:01.710Z,60.73
2022-09-06T12:34:34.565Z,62.00
2022-09-06T12:37:04.502Z,61.93
2022-09-06T12:39:31.844Z,62.28
2022-09-06T12:42:04.967Z,64.15
2022-09-06T12:44:42.889Z,64.50
2022-09-06T12:47:26.666Z,65.48
2022-09-06T12:50:19.318Z,68.28
2022-09-06T12:52:47.551Z,68.33
2022-09-06T12:55:38.464Z,70.08
2022-09-06T12:58:07.753Z,70.46
2022-09-06T13:00:44.259Z,72.03
2022-09-06T13:03:19.785Z,71.82
2022-09-06T13:05:46.583Z,72.45
2022-09-06T13:08:16.934Z,73.29
2022-09-06T13:10:46.495Z,73.36
2022-09-06T13:13:22.183Z,73.85
2022-09-06T13:15:49.082Z,73.73
2022-09-06T13:18:31.324Z,74.59
2022-09-06T13:21:07.419Z,74.45
2022-09-06T13:23:49.763Z,75.20
2022-09-06T13:26:36.432Z,76.35
2022-09-06T13:29:29.331Z,76.80
2022-09-06T13:31:57.890Z,76.53
2022-09-06T13:34:27.733Z,76.58
2022-09-06T13:37:01.319Z,77.30
2022-09-06T13:39:37.935Z,78.27
2022-09-06T13:42:37.451Z,77.89
2022-09-06T13:45:30.357Z,78.34
2022-09-06T13:48:47.142Z,78.67
2022-09-06T13:52:03.535Z,79.87
2022-09-06T13:54:31.728Z,79.47
2022-09-06T13:56:58.826Z,79.50
2022-09-06T13:59:25.618Z,79.67
2022-09-06T14:02:04.032Z,80.01
2022-09-06T14:04:33.614Z,80.88
2022-09-06T14:07:00.338Z,80.27
2022-09-06T14:09:27.057Z,80.69
2022-09-06T14:11:56.444Z,80.95
2022-09-06T14:14:28.522Z,81.34
2022-09-06T14:16:55.291Z,81.86
2022-09-06T14:19:24.966Z,81.68
2022-09-06T14:21:52.676Z,82.65
2022-09-06T14:24:19.561Z,82.83
2022-09-06T14:26:46.123Z,83.24
2022-09-06T14:29:15.664Z,83.20
2022-09-06T14:31:42.263Z,83.79
2022-09-06T14:34:08.895Z,82.57
2022-09-06T14:36:36.746Z,82.88
2022-09-06T14:39:17.794Z,81.87
2022-09-06T14:41:49.316Z,82.84
2022-09-06T14:44:16.012Z,82.73
2022-09-06T14:46:42.872Z,83.24
2022-09-06T14:49:11.643Z,82.54
2022-09-06T14:51:46.599Z,82.43
2022-09-06T14:54:20.128Z,82.00
2022-09-06T14:56:49.334Z,80.35
2022-09-06T14:59:44.510Z,81.41
2022-09-06T15:02:11.593Z,79.22
2022-09-06T15:04:59.011Z,78.95
2022-09-06T15:07:29.270Z,77.47
2022-09-06T15:10:05.653Z,78.62
2022-09-06T15:12:42.545Z,78.52
2022-09-06T15:15:22.285Z,79.58
2022-09-06T15:19:08.763Z,79.95
2022-09-06T15:22:03.162Z,80.28
2022-09-06T15:25:20.862Z,81.36
2022-09-06T15:27:59.788Z,80.87
2022-09-06T15:30:57.768Z,81.88
2022-09-06T15:33:25.765Z,80.32
2022-09-06T15:36:02.176Z,80.11
2022-09-06T15:38:57.761Z,80.13
2022-09-06T15:42:00.132Z,79.86
2022-09-06T15:44:33.395Z,79.83
2022-09-06T15:47:00.315Z,79.38
2022-09-06T15:49:32.360Z,79.51
2022-09-06T15:52:14.381Z,80.20
2022-09-06T15:54:59.502Z,79.93
2022-09-06T15:57:26.161Z,80.37
2022-09-06T15:59:55.501Z,80.45
2022-09-06T16:02:22.118Z,79.64
2022-09-06T16:04:48.765Z,79.19
2022-09-06T16:07:15.480Z,79.48
2022-09-06T16:09:42.569Z,80.11
2022-09-06T16:12:09.388Z,78.79
2022-09-06T16:14:37.065Z,79.01
2022-09-06T16:17:03.763Z,80.31
2022-09-06T16:19:30.309Z,80.61
2022-09-06T16:21:59.047Z,80.90
2022-09-06T16:24:26.549Z,81.72
2022-09-06T16:26:56.698Z,82.24
2022-09-06T16:29:23.295Z,82.27
2022-09-06T16:31:50.576Z,82.16
2022-09-06T16:34:17.203Z,82.33
2022-09-06T16:36:43.892Z,83.16
2022-09-06T16:39:10.970Z,83.11
2022-09-06T16:41:41.269Z,83.25
2022-09-06T16:44:09.965Z,84.00
2022-09-06T16:46:36.662Z,83.18
2022-09-06T16:49:04.513Z,83.14
2022-09-06T16:51:32.027Z,83.57
2022-09-06T16:54:02.721Z,83.24
2022-09-06T16:56:36.136Z,83.59
2022-09-06T16:59:09.124Z,83.16
2022-09-06T17:01:43.303Z,83.32
2022-09-06T17:04:10.763Z,83.08
2022-09-06T17:06:45.819Z,82.14
2022-09-06T17:09:14.839Z,81.90
2022-09-06T17:11:41.675Z,82.97
2022-09-06T17:14:08.507Z,83.45
2022-09-06T17:16:53.754Z,81.97
2022-09-06T17:19:20.513Z,82.14
2022-09-06T17:21:47.757Z,82.48
2022-09-06T17:24:17.050Z,83.09
2022-09-06T17:26:43.630Z,83.12
2022-09-06T17:29:10.521Z,83.98
2022-09-06T17:31:38.149Z,84.46
2022-09-06T17:34:06.850Z,84.70
2022-09-06T17:36:34.137Z,84.49
2022-09-06T17:39:10.215Z,86.00
2022-09-06T17:41:43.065Z,86.27
2022-09-06T17:44:11.356Z,85.89
2022-09-06T17:46:57.036Z,86.43
2022-09-06T17:49:28.434Z,86.15
2022-09-06T17:51:55.220Z,87.01
2022-09-06T17:54:21.885Z,86.62
2022-09-06T17:56:52.014Z,86.48
2022-09-06T17:59:18.881Z,87.39
2022-09-06T18:01:50.920Z,87.20
2022-09-06T18:04:18.143Z,86.77
2022-09-06T18:06:46.963Z,87.75
2022-09-06T18:09:18.503Z,87.75
2022-09-06T18:11:46.875Z,87.48
2022-09-06T18:14:16.739Z,87.70
2022-09-06T18:16:49.536Z,87.64
2022-09-06T18:19:17.785Z,87.76
2022-09-06T18:21:50.478Z,87.15
2022-09-06T18:24:20.284Z,87.39
2022-09-06T18:26:50.487Z,87.56
2022-09-06T18:29:18.610Z,87.08
2022-09-06T18:31:46.061Z,87.36
2022-09-06T18:34:16.967Z,87.85
2022-09-06T18:36:45.857Z,87.95
2022-09-06T18:39:19.349Z,87.56
2022-09-06T18:42:00.754Z,88.27
2022-09-06T18:44:33.957Z,87.92
2022-09-06T18:47:03.850Z,87.76
2022-09-06T18:49:31.101Z,87.33
2022-09-06T18:51:59.069Z,87.27
2022-09-06T18:54:31.340Z,88.26
2022-09-06T19:00:13.535Z,87.79
2022-09-06T19:02:46.817Z,88.06
2022-09-06T19:05:17.064Z,87.32
2022-09-06T19:07:52.393Z,87.75
2022-09-06T19:10:31.343Z,86.80
2022-09-06T19:13:00.541Z,86.66
2022-09-06T19:15:52.643Z,87.78
2022-09-06T19:18:58.000Z,87.35
2022-09-06T19:22:06.598Z,87.55
2022-09-06T19:24:26.561Z,86.74
2022-09-06T19:27:20.432Z,87.58
2022-09-06T19:33:21.385Z,86.61
2022-09-06T19:36:09.890Z,86.78
2022-09-06T19:39:05.320Z,86.88
2022-09-06T19:41:47.492Z,86.33
2022-09-06T19:44:17.938Z,86.49
2022-09-06T19:47:09.046Z,86.50
2022-09-06T19:49:48.236Z,86.71
2022-09-06T19:52:35.153Z,85.68
2022-09-06T19:55:19.237Z,87.50
2022-09-06T19:57:48.832Z,86.28
2022-09-06T20:00:35.528Z,86.19
2022-09-06T20:03:19.167Z,85.63
2022-09-06T20:05:46.317Z,85.51
2022-09-06T20:08:13.710Z,85.25
2022-09-06T20:10:55.119Z,86.54
2022-09-06T20:13:25.537Z,85.45
2022-09-06T20:15:54.863Z,84.65
2022-09-06T20:18:22.370Z,84.48
2022-09-06T20:21:27.955Z,86.15
2022-09-06T20:23:58.613Z,84.13
2022-09-06T20:26:30.497Z,85.03
2022-09-06T20:29:15.456Z,84.23
2022-09-06T20:31:50.210Z,84.79
2022-09-06T20:34:28.667Z,85.82
2022-09-06T20:36:55.273Z,84.93
2022-09-06T20:39:26.010Z,85.22
2022-09-06T20:41:59.794Z,84.94
2022-09-06T20:44:42.581Z,85.49
2022-09-06T20:47:32.176Z,87.29
2022-09-06T20:49:59.073Z,85.47
2022-09-06T20:52:34.857Z,85.99
2022-09-06T20:55:10.051Z,86.38
2022-09-06T20:57:40.188Z,85.69
2022-09-06T21:00:16.342Z,86.17
2022-09-06T21:02:48.791Z,86.42
2022-09-06T21:05:17.836Z,86.36
2022-09-06T21:07:46.581Z,86.44
2022-09-06T21:10:23.956Z,85.75
2022-09-06T21:12:52.946Z,86.42
2022-09-06T21:15:35.627Z,87.19
2022-09-06T21:18:28.958Z,86.63
2022-09-06T21:21:12.136Z,86.79
2022-09-06T21:23:42.941Z,86.77
2022-09-06T21:26:24.922Z,86.74
2022-09-06T21:28:55.851Z,86.77
2022-09-06T21:31:34.028Z,87.06
2022-09-06T21:34:09.050Z,87.05
2022-09-06T21:37:28.064Z,88.29
2022-09-06T21:39:57.463Z,86.80
2022-09-06T21:42:49.200Z,87.38
2022-09-06T21:45:23.158Z,86.46
2022-09-06T21:47:53.746Z,87.19
2022-09-06T21:50:50.313Z,88.40
2022-09-06T21:56:30.256Z,87.45
2022-09-06T21:58:59.331Z,87.25
2022-09-06T22:01:32.041Z,87.35
2022-09-06T22:04:16.743Z,87.32
2022-09-06T22:06:43.607Z,86.68
2022-09-06T22:09:12.084Z,86.92
2022-09-06T22:11:40.625Z,86.80
2022-09-06T22:14:09.522Z,86.89
2022-09-06T22:16:38.775Z,87.63
2022-09-06T22:19:07.481Z,87.24
2022-09-06T22:21:34.789Z,87.86
2022-09-06T22:24:04.095Z,87.97
2022-09-06T22:26:35.324Z,87.61
2022-09-06T22:29:05.227Z,87.66
2022-09-06T22:31:36.667Z,87.63
2022-09-06T22:34:04.272Z,87.48
2022-09-06T22:36:33.784Z,87.44
2022-09-06T22:39:00.566Z,87.74
2022-09-06T22:41:30.135Z,87.60
2022-09-06T22:43:59.679Z,87.38
2022-09-06T22:46:31.458Z,86.93
2022-09-06T22:49:01.387Z,87.42
2022-09-06T22:51:28.095Z,87.35
2022-09-06T22:53:54.823Z,87.67
2022-09-06T22:56:21.729Z,87.94
2022-09-06T22:58:48.589Z,87.60
2022-09-06T23:01:16.822Z,87.44
2022-09-06T23:03:44.341Z,86.40
2022-09-06T23:06:11.551Z,86.49
2022-09-06T23:08:39.517Z,86.99
2022-09-06T23:11:12.063Z,88.02
2022-09-06T23:13:43.549Z,87.62
2022-09-06T23:16:13.662Z,88.05
2022-09-06T23:18:43.023Z,87.70
2022-09-06T23:21:13.348Z,87.35
2022-09-06T23:23:40.906Z,88.24
2022-09-06T23:26:13.209Z,88.19
2022-09-06T23:28:40.233Z,87.90
2022-09-06T23:31:11.098Z,87.83
2022-09-06T23:33:38.355Z,88.00
2022-09-06T23:36:08.803Z,88.44
2022-09-06T23:38:36.975Z,88.17
2022-09-06T23:41:04.550Z,88.37
2022-09-06T23:43:31.886Z,88.00
2022-09-06T23:45:58.882Z,88.00
2022-09-06T23:48:25.865Z,89.50
2022-09-06T23:50:55.265Z,88.83
2022-09-06T23:53:21.935Z,89.96
2022-09-06T23:55:48.611Z,89.28
2022-09-06T23:58:15.274Z,89.47
